sensor_id;sensor_type;location;lat;lon;timestamp;P1;durP1;ratioP1;P2;durP2;ratioP2
6344;SDS011;3205;42.666;23.264;2022-11-10T00:00:22;48.47;;;26.53;;
6344;SDS011;3205;42.666;23.264;2022-11-10T00:02:48;46.50;;;26.23;;
6344;SDS011;3205;42.666;23.264;2022-11-10T00:05:15;46.03;;;27.17;;
6344;SDS011;3205;42.666;23.264;2022-11-10T00:07:42;46.87;;;26.70;;
6344;SDS011;3205;42.666;23.264;2022-11-10T00:10:09;45.27;;;26.90;;
6344;SDS011;3205;42.666;23.264;2022-11-10T00:12:37;49.40;;;29.10;;
6344;SDS011;3205;42.666;23.264;2022-11-10T00:15:04;50.97;;;27.70;;
6344;SDS011;3205;42.666;23.264;2022-11-10T00:17:50;44.17;;;26.07;;
6344;SDS011;3205;42.666;23.264;2022-11-10T00:20:16;45.37;;;26.57;;
6344;SDS011;3205;42.666;23.264;2022-11-10T00:22:43;50.17;;;26.57;;
6344;SDS011;3205;42.666;23.264;2022-11-10T00:25:10;49.50;;;26.03;;
6344;SDS011;3205;42.666;23.264;2022-11-10T00:27:39;43.80;;;25.37;;
6344;SDS011;3205;42.666;23.264;2022-11-10T00:30:06;47.33;;;26.40;;
6344;SDS011;3205;42.666;23.264;2022-11-10T00:32:33;44.17;;;27.73;;
6344;SDS011;3205;42.666;23.264;2022-11-10T00:35:00;47.63;;;26.47;;
6344;SDS011;3205;42.666;23.264;2022-11-10T00:37:26;49.20;;;26.60;;
6344;SDS011;3205;42.666;23.264;2022-11-10T00:39:53;45.20;;;26.97;;
6344;SDS011;3205;42.666;23.264;2022-11-10T00:42:20;47.47;;;27.23;;
6344;SDS011;3205;42.666;23.264;2022-11-10T00:44:48;48.93;;;27.57;;
6344;SDS011;3205;42.666;23.264;2022-11-10T00:47:15;50.00;;;27.67;;
6344;SDS011;3205;42.666;23.264;2022-11-10T00:49:41;52.17;;;29.17;;
6344;SDS011;3205;42.666;23.264;2022-11-10T00:52:08;50.13;;;28.37;;
6344;SDS011;3205;42.666;23.264;2022-11-10T00:54:35;53.00;;;30.07;;
6344;SDS011;3205;42.666;23.264;2022-11-10T00:57:02;48.43;;;28.40;;
6344;SDS011;3205;42.666;23.264;2022-11-10T00:59:29;47.97;;;26.40;;
6344;SDS011;3205;42.666;23.264;2022-11-10T01:01:57;50.53;;;26.90;;
6344;SDS011;3205;42.666;23.264;2022-11-10T01:04:24;47.23;;;26.63;;
6344;SDS011;3205;42.666;23.264;2022-11-10T01:06:51;46.10;;;26.00;;
6344;SDS011;3205;42.666;23.264;2022-11-10T01:09:17;48.77;;;25.53;;
6344;SDS011;3205;42.666;23.264;2022-11-10T01:11:44;45.10;;;25.50;;
6344;SDS011;3205;42.666;23.264;2022-11-10T01:14:11;43.73;;;25.37;;
6344;SDS011;3205;42.666;23.264;2022-11-10T01:16:38;45.93;;;26.27;;
6344;SDS011;3205;42.666;23.264;2022-11-10T01:19:06;51.80;;;26.73;;
6344;SDS011;3205;42.666;23.264;2022-11-10T01:21:33;43.97;;;24.97;;
6344;SDS011;3205;42.666;23.264;2022-11-10T01:23:59;45.47;;;25.97;;
6344;SDS011;3205;42.666;23.264;2022-11-10T01:26:27;46.63;;;26.00;;
6344;SDS011;3205;42.666;23.264;2022-11-10T01:28:53;41.73;;;25.37;;
6344;SDS011;3205;42.666;23.264;2022-11-10T01:31:20;36.43;;;23.27;;
6344;SDS011;3205;42.666;23.264;2022-11-10T01:33:48;41.17;;;24.17;;
6344;SDS011;3205;42.666;23.264;2022-11-10T01:36:16;49.07;;;24.80;;
6344;SDS011;3205;42.666;23.264;2022-11-10T01:38:43;43.83;;;26.17;;
6344;SDS011;3205;42.666;23.264;2022-11-10T01:41:11;50.17;;;25.50;;
6344;SDS011;3205;42.666;23.264;2022-11-10T01:43:39;44.27;;;24.13;;
6344;SDS011;3205;42.666;23.264;2022-11-10T01:46:07;53.20;;;26.47;;
6344;SDS011;3205;42.666;23.264;2022-11-10T01:48:35;50.23;;;26.33;;
6344;SDS011;3205;42.666;23.264;2022-11-10T01:51:07;45.50;;;25.57;;
6344;SDS011;3205;42.666;23.264;2022-11-10T01:53:40;42.37;;;24.87;;
6344;SDS011;3205;42.666;23.264;2022-11-10T01:56:11;48.07;;;26.17;;
6344;SDS011;3205;42.666;23.264;2022-11-10T01:58:42;46.33;;;26.07;;
6344;SDS011;3205;42.666;23.264;2022-11-10T02:01:13;39.23;;;24.53;;
6344;SDS011;3205;42.666;23.264;2022-11-10T02:03:42;42.40;;;24.73;;
6344;SDS011;3205;42.666;23.264;2022-11-10T02:06:13;41.83;;;25.63;;
6344;SDS011;3205;42.666;23.264;2022-11-10T02:08:43;41.17;;;24.30;;
6344;SDS011;3205;42.666;23.264;2022-11-10T02:11:12;46.00;;;24.67;;
6344;SDS011;3205;42.666;23.264;2022-11-10T02:13:39;44.63;;;26.20;;
6344;SDS011;3205;42.666;23.264;2022-11-10T02:16:07;53.00;;;28.23;;
6344;SDS011;3205;42.666;23.264;2022-11-10T02:18:35;49.53;;;27.33;;
6344;SDS011;3205;42.666;23.264;2022-11-10T02:21:04;52.50;;;28.10;;
6344;SDS011;3205;42.666;23.264;2022-11-10T02:23:44;51.53;;;27.67;;
6344;SDS011;3205;42.666;23.264;2022-11-10T02:26:13;53.60;;;27.50;;
6344;SDS011;3205;42.666;23.264;2022-11-10T02:28:42;45.63;;;25.57;;
6344;SDS011;3205;42.666;23.264;2022-11-10T02:31:09;46.63;;;24.60;;
6344;SDS011;3205;42.666;23.264;2022-11-10T02:33:37;38.63;;;22.77;;
6344;SDS011;3205;42.666;23.264;2022-11-10T02:36:05;48.03;;;25.53;;
6344;SDS011;3205;42.666;23.264;2022-11-10T02:38:33;47.90;;;24.60;;
6344;SDS011;3205;42.666;23.264;2022-11-10T02:40:59;47.03;;;25.57;;
6344;SDS011;3205;42.666;23.264;2022-11-10T02:43:26;46.70;;;24.97;;
6344;SDS011;3205;42.666;23.264;2022-11-10T02:45:54;43.43;;;24.10;;
6344;SDS011;3205;42.666;23.264;2022-11-10T02:48:21;46.70;;;25.33;;
6344;SDS011;3205;42.666;23.264;2022-11-10T02:50:48;39.40;;;24.07;;
6344;SDS011;3205;42.666;23.264;2022-11-10T02:53:16;41.63;;;24.27;;
6344;SDS011;3205;42.666;23.264;2022-11-10T02:55:43;43.17;;;23.77;;
6344;SDS011;3205;42.666;23.264;2022-11-10T02:58:09;41.73;;;24.33;;
6344;SDS011;3205;42.666;23.264;2022-11-10T03:00:36;42.23;;;22.07;;
6344;SDS011;3205;42.666;23.264;2022-11-10T03:03:03;41.13;;;23.77;;
6344;SDS011;3205;42.666;23.264;2022-11-10T03:05:30;53.07;;;24.17;;
6344;SDS011;3205;42.666;23.264;2022-11-10T03:07:58;43.07;;;22.77;;
6344;SDS011;3205;42.666;23.264;2022-11-10T03:10:27;42.20;;;22.83;;
6344;SDS011;3205;42.666;23.264;2022-11-10T03:12:55;51.53;;;23.77;;
6344;SDS011;3205;42.666;23.264;2022-11-10T03:15:23;50.67;;;23.00;;
6344;SDS011;3205;42.666;23.264;2022-11-10T03:17:50;46.20;;;23.53;;
6344;SDS011;3205;42.666;23.264;2022-11-10T03:20:17;45.47;;;22.80;;
6344;SDS011;3205;42.666;23.264;2022-11-10T03:22:45;49.60;;;24.83;;
6344;SDS011;3205;42.666;23.264;2022-11-10T03:25:12;47.33;;;25.13;;
6344;SDS011;3205;42.666;23.264;2022-11-10T03:27:41;47.70;;;24.97;;
6344;SDS011;3205;42.666;23.264;2022-11-10T03:30:08;47.13;;;24.47;;
6344;SDS011;3205;42.666;23.264;2022-11-10T03:32:35;46.93;;;23.03;;
6344;SDS011;3205;42.666;23.264;2022-11-10T03:35:02;48.17;;;24.13;;
6344;SDS011;3205;42.666;23.264;2022-11-10T03:37:29;46.57;;;24.10;;
6344;SDS011;3205;42.666;23.264;2022-11-10T03:39:55;49.63;;;23.30;;
6344;SDS011;3205;42.666;23.264;2022-11-10T03:42:22;43.53;;;24.33;;
6344;SDS011;3205;42.666;23.264;2022-11-10T03:44:50;42.60;;;23.20;;
6344;SDS011;3205;42.666;23.264;2022-11-10T03:47:17;45.67;;;23.03;;
6344;SDS011;3205;42.666;23.264;2022-11-10T03:49:44;46.17;;;23.27;;
6344;SDS011;3205;42.666;23.264;2022-11-10T03:52:11;43.63;;;22.40;;
6344;SDS011;3205;42.666;23.264;2022-11-10T03:54:38;36.97;;;21.27;;
6344;SDS011;3205;42.666;23.264;2022-11-10T03:57:05;41.70;;;24.63;;
6344;SDS011;3205;42.666;23.264;2022-11-10T03:59:32;44.97;;;22.77;;
6344;SDS011;3205;42.666;23.264;2022-11-10T04:02:00;40.67;;;21.77;;
6344;SDS011;3205;42.666;23.264;2022-11-10T04:04:26;36.43;;;22.37;;
6344;SDS011;3205;42.666;23.264;2022-11-10T04:07:13;40.20;;;23.17;;
6344;SDS011;3205;42.666;23.264;2022-11-10T04:09:57;32.87;;;19.97;;
6344;SDS011;3205;42.666;23.264;2022-11-10T04:12:24;40.57;;;20.80;;
6344;SDS011;3205;42.666;23.264;2022-11-10T04:15:08;36.57;;;20.13;;
6344;SDS011;3205;42.666;23.264;2022-11-10T04:17:54;34.80;;;20.53;;
6344;SDS011;3205;42.666;23.264;2022-11-10T04:20:43;33.20;;;19.20;;
6344;SDS011;3205;42.666;23.264;2022-11-10T04:23:09;32.37;;;19.53;;
6344;SDS011;3205;42.666;23.264;2022-11-10T04:25:52;36.80;;;19.83;;
6344;SDS011;3205;42.666;23.264;2022-11-10T04:28:37;32.43;;;19.17;;
6344;SDS011;3205;42.666;23.264;2022-11-10T04:31:04;41.47;;;21.07;;
6344;SDS011;3205;42.666;23.264;2022-11-10T04:33:33;37.33;;;20.90;;
6344;SDS011;3205;42.666;23.264;2022-11-10T04:36:00;39.27;;;20.23;;
6344;SDS011;3205;42.666;23.264;2022-11-10T04:38:27;42.17;;;20.40;;
6344;SDS011;3205;42.666;23.264;2022-11-10T04:40:54;36.87;;;20.60;;
6344;SDS011;3205;42.666;23.264;2022-11-10T04:43:21;39.27;;;20.47;;
6344;SDS011;3205;42.666;23.264;2022-11-10T04:45:48;40.80;;;20.17;;
6344;SDS011;3205;42.666;23.264;2022-11-10T04:48:15;37.33;;;20.73;;
6344;SDS011;3205;42.666;23.264;2022-11-10T04:50:43;41.07;;;21.10;;
6344;SDS011;3205;42.666;23.264;2022-11-10T04:53:10;40.67;;;22.23;;
6344;SDS011;3205;42.666;23.264;2022-11-10T04:55:37;39.30;;;20.37;;
6344;SDS011;3205;42.666;23.264;2022-11-10T04:58:05;34.43;;;20.50;;
6344;SDS011;3205;42.666;23.264;2022-11-10T05:00:33;35.00;;;21.17;;
6344;SDS011;3205;42.666;23.264;2022-11-10T05:03:01;46.17;;;25.30;;
6344;SDS011;3205;42.666;23.264;2022-11-10T05:05:29;51.03;;;25.43;;
6344;SDS011;3205;42.666;23.264;2022-11-10T05:07:58;51.33;;;22.87;;
6344;SDS011;3205;42.666;23.264;2022-11-10T05:10:25;47.73;;;24.87;;
6344;SDS011;3205;42.666;23.264;2022-11-10T05:12:52;46.63;;;24.20;;
6344;SDS011;3205;42.666;23.264;2022-11-10T05:15:20;43.40;;;23.47;;
6344;SDS011;3205;42.666;23.264;2022-11-10T05:17:47;55.47;;;24.60;;
6344;SDS011;3205;42.666;23.264;2022-11-10T05:20:15;43.33;;;23.57;;
6344;SDS011;3205;42.666;23.264;2022-11-10T05:22:42;49.23;;;22.63;;
6344;SDS011;3205;42.666;23.264;2022-11-10T05:25:12;49.50;;;23.60;;
6344;SDS011;3205;42.666;23.264;2022-11-10T05:27:39;41.13;;;22.87;;
6344;SDS011;3205;42.666;23.264;2022-11-10T05:30:06;40.30;;;22.83;;
6344;SDS011;3205;42.666;23.264;2022-11-10T05:32:35;59.73;;;24.83;;
6344;SDS011;3205;42.666;23.264;2022-11-10T05:35:03;48.10;;;25.10;;
6344;SDS011;3205;42.666;23.264;2022-11-10T05:37:30;60.37;;;27.03;;
6344;SDS011;3205;42.666;23.264;2022-11-10T05:39:57;61.60;;;27.63;;
6344;SDS011;3205;42.666;23.264;2022-11-10T05:42:25;55.27;;;28.57;;
6344;SDS011;3205;42.666;23.264;2022-11-10T05:44:52;62.83;;;28.87;;
6344;SDS011;3205;42.666;23.264;2022-11-10T05:47:18;70.90;;;29.77;;
6344;SDS011;3205;42.666;23.264;2022-11-10T05:49:45;56.73;;;29.03;;
6344;SDS011;3205;42.666;23.264;2022-11-10T05:52:12;48.83;;;28.13;;
6344;SDS011;3205;42.666;23.264;2022-11-10T05:54:39;81.30;;;30.80;;
6344;SDS011;3205;42.666;23.264;2022-11-10T05:57:06;70.63;;;29.70;;
6344;SDS011;3205;42.666;23.264;2022-11-10T05:59:34;51.87;;;26.07;;
6344;SDS011;3205;42.666;23.264;2022-11-10T06:02:00;56.47;;;26.73;;
6344;SDS011;3205;42.666;23.264;2022-11-10T06:04:27;49.90;;;25.97;;
6344;SDS011;3205;42.666;23.264;2022-11-10T06:06:54;47.30;;;24.73;;
6344;SDS011;3205;42.666;23.264;2022-11-10T06:09:21;42.57;;;24.53;;
6344;SDS011;3205;42.666;23.264;2022-11-10T06:11:48;41.73;;;24.03;;
6344;SDS011;3205;42.666;23.264;2022-11-10T06:14:15;47.87;;;22.37;;
6344;SDS011;3205;42.666;23.264;2022-11-10T06:16:43;36.93;;;21.53;;
6344;SDS011;3205;42.666;23.264;2022-11-10T06:19:10;42.83;;;21.77;;
6344;SDS011;3205;42.666;23.264;2022-11-10T06:21:36;32.30;;;19.57;;
6344;SDS011;3205;42.666;23.264;2022-11-10T06:24:03;37.73;;;20.57;;
6344;SDS011;3205;42.666;23.264;2022-11-10T06:26:31;28.83;;;17.77;;
6344;SDS011;3205;42.666;23.264;2022-11-10T06:28:57;34.80;;;20.40;;
6344;SDS011;3205;42.666;23.264;2022-11-10T06:31:24;39.10;;;20.08;;
6344;SDS011;3205;42.666;23.264;2022-11-10T06:33:53;35.30;;;19.25;;
6344;SDS011;3205;42.666;23.264;2022-11-10T06:36:20;41.38;;;19.17;;
6344;SDS011;3205;42.666;23.264;2022-11-10T06:38:47;41.00;;;20.27;;
6344;SDS011;3205;42.666;23.264;2022-11-10T06:41:14;46.55;;;22.17;;
6344;SDS011;3205;42.666;23.264;2022-11-10T06:43:41;44.70;;;22.08;;
6344;SDS011;3205;42.666;23.264;2022-11-10T06:46:07;54.85;;;25.05;;
6344;SDS011;3205;42.666;23.264;2022-11-10T06:48:34;48.38;;;28.10;;
6344;SDS011;3205;42.666;23.264;2022-11-10T06:51:02;40.00;;;24.33;;
6344;SDS011;3205;42.666;23.264;2022-11-10T06:53:29;36.47;;;22.15;;
6344;SDS011;3205;42.666;23.264;2022-11-10T06:55:56;39.63;;;23.33;;
6344;SDS011;3205;42.666;23.264;2022-11-10T06:58:23;38.20;;;25.02;;
6344;SDS011;3205;42.666;23.264;2022-11-10T07:00:50;45.63;;;26.48;;
6344;SDS011;3205;42.666;23.264;2022-11-10T07:03:17;36.85;;;23.30;;
6344;SDS011;3205;42.666;23.264;2022-11-10T07:05:44;31.33;;;21.77;;
6344;SDS011;3205;42.666;23.264;2022-11-10T07:08:12;45.13;;;28.17;;
6344;SDS011;3205;42.666;23.264;2022-11-10T07:10:40;44.70;;;29.38;;
6344;SDS011;3205;42.666;23.264;2022-11-10T07:13:08;45.72;;;28.67;;
6344;SDS011;3205;42.666;23.264;2022-11-10T07:15:35;47.00;;;30.35;;
6344;SDS011;3205;42.666;23.264;2022-11-10T07:18:03;48.42;;;30.65;;
6344;SDS011;3205;42.666;23.264;2022-11-10T07:20:30;42.55;;;29.42;;
6344;SDS011;3205;42.666;23.264;2022-11-10T07:22:57;45.67;;;28.42;;
6344;SDS011;3205;42.666;23.264;2022-11-10T07:25:27;47.60;;;29.77;;
6344;SDS011;3205;42.666;23.264;2022-11-10T07:27:56;43.42;;;30.02;;
6344;SDS011;3205;42.666;23.264;2022-11-10T07:30:24;46.30;;;29.48;;
6344;SDS011;3205;42.666;23.264;2022-11-10T07:32:58;40.15;;;28.52;;
6344;SDS011;3205;42.666;23.264;2022-11-10T07:35:25;48.53;;;32.78;;
6344;SDS011;3205;42.666;23.264;2022-11-10T07:37:53;52.22;;;29.98;;
6344;SDS011;3205;42.666;23.264;2022-11-10T07:40:20;40.10;;;28.20;;
6344;SDS011;3205;42.666;23.264;2022-11-10T07:42:48;46.92;;;27.05;;
6344;SDS011;3205;42.666;23.264;2022-11-10T07:45:15;34.15;;;25.42;;
6344;SDS011;3205;42.666;23.264;2022-11-10T07:47:42;36.45;;;24.80;;
6344;SDS011;3205;42.666;23.264;2022-11-10T07:50:09;33.35;;;24.90;;
6344;SDS011;3205;42.666;23.264;2022-11-10T07:52:36;35.45;;;26.20;;
6344;SDS011;3205;42.666;23.264;2022-11-10T07:55:03;37.13;;;26.50;;
6344;SDS011;3205;42.666;23.264;2022-11-10T07:57:31;44.30;;;26.73;;
6344;SDS011;3205;42.666;23.264;2022-11-10T08:00:00;35.78;;;25.67;;
6344;SDS011;3205;42.666;23.264;2022-11-10T08:02:27;36.58;;;25.67;;
6344;SDS011;3205;42.666;23.264;2022-11-10T08:04:54;37.92;;;25.98;;
6344;SDS011;3205;42.666;23.264;2022-11-10T08:07:21;39.92;;;26.75;;
6344;SDS011;3205;42.666;23.264;2022-11-10T08:09:47;35.40;;;26.13;;
6344;SDS011;3205;42.666;23.264;2022-11-10T08:12:14;37.08;;;25.80;;
6344;SDS011;3205;42.666;23.264;2022-11-10T08:14:41;34.22;;;26.00;;
6344;SDS011;3205;42.666;23.264;2022-11-10T08:17:09;41.10;;;26.40;;
6344;SDS011;3205;42.666;23.264;2022-11-10T08:19:36;37.92;;;27.55;;
6344;SDS011;3205;42.666;23.264;2022-11-10T08:22:03;40.50;;;26.33;;
6344;SDS011;3205;42.666;23.264;2022-11-10T08:24:30;43.80;;;28.10;;
6344;SDS011;3205;42.666;23.264;2022-11-10T08:26:56;45.17;;;26.63;;
6344;SDS011;3205;42.666;23.264;2022-11-10T08:29:23;36.60;;;25.70;;
6344;SDS011;3205;42.666;23.264;2022-11-10T08:31:50;36.25;;;27.40;;
6344;SDS011;3205;42.666;23.264;2022-11-10T08:34:18;35.95;;;26.73;;
6344;SDS011;3205;42.666;23.264;2022-11-10T08:36:45;42.72;;;27.38;;
6344;SDS011;3205;42.666;23.264;2022-11-10T08:39:12;32.28;;;26.20;;
6344;SDS011;3205;42.666;23.264;2022-11-10T08:41:39;28.67;;;22.00;;
6344;SDS011;3205;42.666;23.264;2022-11-10T08:44:06;30.65;;;23.85;;
6344;SDS011;3205;42.666;23.264;2022-11-10T08:46:33;32.03;;;24.77;;
6344;SDS011;3205;42.666;23.264;2022-11-10T08:48:59;28.73;;;22.35;;
6344;SDS011;3205;42.666;23.264;2022-11-10T08:51:28;32.78;;;23.80;;
6344;SDS011;3205;42.666;23.264;2022-11-10T08:53:54;33.38;;;23.40;;
6344;SDS011;3205;42.666;23.264;2022-11-10T08:56:21;31.98;;;24.20;;
6344;SDS011;3205;42.666;23.264;2022-11-10T08:58:48;32.47;;;25.13;;
6344;SDS011;3205;42.666;23.264;2022-11-10T09:01:16;34.22;;;25.58;;
6344;SDS011;3205;42.666;23.264;2022-11-10T09:03:43;35.03;;;25.58;;
6344;SDS011;3205;42.666;23.264;2022-11-10T09:06:10;35.40;;;26.30;;
6344;SDS011;3205;42.666;23.264;2022-11-10T09:08:38;33.95;;;25.42;;
6344;SDS011;3205;42.666;23.264;2022-11-10T09:11:05;36.60;;;26.02;;
6344;SDS011;3205;42.666;23.264;2022-11-10T09:13:31;35.15;;;25.33;;
6344;SDS011;3205;42.666;23.264;2022-11-10T09:15:59;35.20;;;25.40;;
6344;SDS011;3205;42.666;23.264;2022-11-10T09:18:27;34.17;;;25.98;;
6344;SDS011;3205;42.666;23.264;2022-11-10T09:20:54;44.50;;;27.98;;
6344;SDS011;3205;42.666;23.264;2022-11-10T09:23:21;40.47;;;25.40;;
6344;SDS011;3205;42.666;23.264;2022-11-10T09:25:51;34.35;;;23.95;;
6344;SDS011;3205;42.666;23.264;2022-11-10T09:28:19;33.60;;;26.25;;
6344;SDS011;3205;42.666;23.264;2022-11-10T09:30:47;44.63;;;26.73;;
6344;SDS011;3205;42.666;23.264;2022-11-10T09:33:15;38.03;;;26.63;;
6344;SDS011;3205;42.666;23.264;2022-11-10T09:35:42;37.42;;;26.30;;
6344;SDS011;3205;42.666;23.264;2022-11-10T09:38:09;36.13;;;25.70;;
6344;SDS011;3205;42.666;23.264;2022-11-10T09:40:40;34.40;;;27.10;;
6344;SDS011;3205;42.666;23.264;2022-11-10T09:43:18;41.22;;;27.40;;
6344;SDS011;3205;42.666;23.264;2022-11-10T09:45:51;35.97;;;26.58;;
6344;SDS011;3205;42.666;23.264;2022-11-10T09:48:24;45.63;;;30.52;;
6344;SDS011;3205;42.666;23.264;2022-11-10T09:50:54;52.05;;;34.22;;
6344;SDS011;3205;42.666;23.264;2022-11-10T09:53:25;40.22;;;29.10;;
6344;SDS011;3205;42.666;23.264;2022-11-10T09:55:57;40.70;;;28.85;;
6344;SDS011;3205;42.666;23.264;2022-11-10T09:58:31;41.25;;;29.65;;
6344;SDS011;3205;42.666;23.264;2022-11-10T10:01:08;41.03;;;27.42;;
6344;SDS011;3205;42.666;23.264;2022-11-10T10:03:55;43.47;;;29.05;;
6344;SDS011;3205;42.666;23.264;2022-11-10T10:06:31;45.95;;;30.02;;
6344;SDS011;3205;42.666;23.264;2022-11-10T10:09:06;44.85;;;27.63;;
6344;SDS011;3205;42.666;23.264;2022-11-10T10:11:45;52.70;;;30.83;;
6344;SDS011;3205;42.666;23.264;2022-11-10T10:14:26;42.80;;;30.38;;
6344;SDS011;3205;42.666;23.264;2022-11-10T10:17:07;48.92;;;30.85;;
6344;SDS011;3205;42.666;23.264;2022-11-10T10:19:46;57.55;;;38.05;;
6344;SDS011;3205;42.666;23.264;2022-11-10T10:22:30;63.45;;;36.63;;
6344;SDS011;3205;42.666;23.264;2022-11-10T10:25:09;47.58;;;30.17;;
6344;SDS011;3205;42.666;23.264;2022-11-10T10:27:39;58.30;;;35.63;;
6344;SDS011;3205;42.666;23.264;2022-11-10T10:30:14;51.92;;;34.10;;
6344;SDS011;3205;42.666;23.264;2022-11-10T10:32:42;63.75;;;37.28;;
6344;SDS011;3205;42.666;23.264;2022-11-10T10:35:13;48.97;;;31.33;;
6344;SDS011;3205;42.666;23.264;2022-11-10T10:37:42;44.92;;;30.02;;
6344;SDS011;3205;42.666;23.264;2022-11-10T10:40:12;45.88;;;31.55;;
6344;SDS011;3205;42.666;23.264;2022-11-10T10:42:41;48.67;;;31.58;;
6344;SDS011;3205;42.666;23.264;2022-11-10T10:45:13;47.15;;;32.28;;
6344;SDS011;3205;42.666;23.264;2022-11-10T10:47:43;53.30;;;31.88;;
6344;SDS011;3205;42.666;23.264;2022-11-10T10:50:14;47.97;;;32.03;;
6344;SDS011;3205;42.666;23.264;2022-11-10T10:52:52;51.55;;;32.03;;
6344;SDS011;3205;42.666;23.264;2022-11-10T10:55:32;48.97;;;30.92;;
6344;SDS011;3205;42.666;23.264;2022-11-10T10:57:59;54.08;;;30.52;;
6344;SDS011;3205;42.666;23.264;2022-11-10T11:00:29;49.80;;;31.77;;
6344;SDS011;3205;42.666;23.264;2022-11-10T11:03:00;50.13;;;31.67;;
6344;SDS011;3205;42.666;23.264;2022-11-10T11:05:28;54.35;;;34.22;;
6344;SDS011;3205;42.666;23.264;2022-11-10T11:07:55;53.50;;;33.13;;
6344;SDS011;3205;42.666;23.264;2022-11-10T11:10:24;56.17;;;33.40;;
6344;SDS011;3205;42.666;23.264;2022-11-10T11:12:53;50.55;;;32.38;;
6344;SDS011;3205;42.666;23.264;2022-11-10T11:15:21;57.97;;;32.05;;
6344;SDS011;3205;42.666;23.264;2022-11-10T11:17:56;56.45;;;32.60;;
6344;SDS011;3205;42.666;23.264;2022-11-10T11:20:27;56.50;;;34.28;;
6344;SDS011;3205;42.666;23.264;2022-11-10T11:23:02;55.03;;;32.13;;
6344;SDS011;3205;42.666;23.264;2022-11-10T11:25:43;61.20;;;34.28;;
6344;SDS011;3205;42.666;23.264;2022-11-10T11:28:15;50.63;;;32.17;;
6344;SDS011;3205;42.666;23.264;2022-11-10T11:30:53;60.78;;;33.00;;
6344;SDS011;3205;42.666;23.264;2022-11-10T11:33:33;58.90;;;32.30;;
6344;SDS011;3205;42.666;23.264;2022-11-10T11:36:08;53.38;;;33.15;;
6344;SDS011;3205;42.666;23.264;2022-11-10T11:38:44;56.00;;;32.75;;
6344;SDS011;3205;42.666;23.264;2022-11-10T11:41:22;59.63;;;34.83;;
6344;SDS011;3205;42.666;23.264;2022-11-10T11:44:02;50.70;;;32.90;;
6344;SDS011;3205;42.666;23.264;2022-11-10T11:46:42;51.45;;;31.60;;
6344;SDS011;3205;42.666;23.264;2022-11-10T11:52:17;49.78;;;30.85;;
6344;SDS011;3205;42.666;23.264;2022-11-10T11:55:02;51.38;;;31.17;;
6344;SDS011;3205;42.666;23.264;2022-11-10T11:57:42;51.78;;;31.25;;
6344;SDS011;3205;42.666;23.264;2022-11-10T12:00:19;49.78;;;32.10;;
6344;SDS011;3205;42.666;23.264;2022-11-10T12:03:00;51.60;;;31.08;;
6344;SDS011;3205;42.666;23.264;2022-11-10T12:05:53;52.95;;;31.30;;
6344;SDS011;3205;42.666;23.264;2022-11-10T12:08:42;56.55;;;30.85;;
6344;SDS011;3205;42.666;23.264;2022-11-10T12:11:19;54.42;;;33.25;;
6344;SDS011;3205;42.666;23.264;2022-11-10T12:13:54;52.80;;;32.50;;
6344;SDS011;3205;42.666;23.264;2022-11-10T12:16:28;52.72;;;32.88;;
6344;SDS011;3205;42.666;23.264;2022-11-10T12:19:14;55.58;;;32.63;;
6344;SDS011;3205;42.666;23.264;2022-11-10T12:21:50;54.63;;;32.58;;
6344;SDS011;3205;42.666;23.264;2022-11-10T12:24:32;53.22;;;33.50;;
6344;SDS011;3205;42.666;23.264;2022-11-10T12:27:15;49.97;;;32.78;;
6344;SDS011;3205;42.666;23.264;2022-11-10T12:29:47;60.97;;;32.42;;
6344;SDS011;3205;42.666;23.264;2022-11-10T12:32:20;54.55;;;34.65;;
6344;SDS011;3205;42.666;23.264;2022-11-10T12:34:51;57.90;;;33.92;;
6344;SDS011;3205;42.666;23.264;2022-11-10T12:37:23;56.55;;;34.97;;
6344;SDS011;3205;42.666;23.264;2022-11-10T12:39:56;57.25;;;33.55;;
6344;SDS011;3205;42.666;23.264;2022-11-10T12:42:27;57.20;;;34.15;;
6344;SDS011;3205;42.666;23.264;2022-11-10T12:44:58;63.55;;;35.10;;
6344;SDS011;3205;42.666;23.264;2022-11-10T12:47:28;67.72;;;36.75;;
6344;SDS011;3205;42.666;23.264;2022-11-10T12:50:02;56.00;;;35.13;;
6344;SDS011;3205;42.666;23.264;2022-11-10T12:52:51;65.57;;;36.75;;
6344;SDS011;3205;42.666;23.264;2022-11-10T12:55:23;58.72;;;34.42;;
6344;SDS011;3205;42.666;23.264;2022-11-10T12:57:56;56.63;;;33.30;;
6344;SDS011;3205;42.666;23.264;2022-11-10T13:00:25;56.45;;;35.17;;
6344;SDS011;3205;42.666;23.264;2022-11-10T13:02:55;57.67;;;34.45;;
6344;SDS011;3205;42.666;23.264;2022-11-10T13:05:28;60.28;;;36.03;;
6344;SDS011;3205;42.666;23.264;2022-11-10T13:08:12;58.30;;;35.30;;
6344;SDS011;3205;42.666;23.264;2022-11-10T13:10:49;58.20;;;34.88;;
6344;SDS011;3205;42.666;23.264;2022-11-10T13:13:18;58.63;;;35.35;;
6344;SDS011;3205;42.666;23.264;2022-11-10T13:15:46;54.53;;;34.13;;
6344;SDS011;3205;42.666;23.264;2022-11-10T13:18:21;66.35;;;36.85;;
6344;SDS011;3205;42.666;23.264;2022-11-10T13:21:07;57.97;;;33.42;;
6344;SDS011;3205;42.666;23.264;2022-11-10T13:29:28;58.67;;;32.00;;
6344;SDS011;3205;42.666;23.264;2022-11-10T13:32:09;52.22;;;32.08;;
6344;SDS011;3205;42.666;23.264;2022-11-10T13:34:50;52.05;;;33.20;;
6344;SDS011;3205;42.666;23.264;2022-11-10T13:40:25;57.85;;;32.83;;
6344;SDS011;3205;42.666;23.264;2022-11-10T13:45:58;61.85;;;34.47;;
6344;SDS011;3205;42.666;23.264;2022-11-10T13:48:30;63.53;;;38.55;;
6344;SDS011;3205;42.666;23.264;2022-11-10T13:51:24;61.20;;;36.15;;
6344;SDS011;3205;42.666;23.264;2022-11-10T13:54:04;56.72;;;34.97;;
6344;SDS011;3205;42.666;23.264;2022-11-10T13:56:56;58.88;;;34.65;;
6344;SDS011;3205;42.666;23.264;2022-11-10T13:59:41;56.05;;;34.35;;
6344;SDS011;3205;42.666;23.264;2022-11-10T14:08:28;53.13;;;33.63;;
6344;SDS011;3205;42.666;23.264;2022-11-10T14:11:02;64.55;;;32.50;;
6344;SDS011;3205;42.666;23.264;2022-11-10T14:13:31;60.85;;;31.17;;
6344;SDS011;3205;42.666;23.264;2022-11-10T14:16:08;55.17;;;31.65;;
6344;SDS011;3205;42.666;23.264;2022-11-10T14:18:39;57.90;;;30.73;;
6344;SDS011;3205;42.666;23.264;2022-11-10T14:21:18;51.20;;;30.55;;
6344;SDS011;3205;42.666;23.264;2022-11-10T14:23:49;60.78;;;30.30;;
6344;SDS011;3205;42.666;23.264;2022-11-10T14:26:21;72.55;;;30.85;;
6344;SDS011;3205;42.666;23.264;2022-11-10T14:28:50;54.58;;;31.42;;
6344;SDS011;3205;42.666;23.264;2022-11-10T14:31:20;53.20;;;30.13;;
6344;SDS011;3205;42.666;23.264;2022-11-10T14:33:52;55.13;;;28.90;;
6344;SDS011;3205;42.666;23.264;2022-11-10T14:36:20;62.92;;;30.67;;
6344;SDS011;3205;42.666;23.264;2022-11-10T14:38:47;60.70;;;27.67;;
6344;SDS011;3205;42.666;23.264;2022-11-10T14:41:17;56.10;;;27.15;;
6344;SDS011;3205;42.666;23.264;2022-11-10T14:43:57;69.00;;;30.25;;
6344;SDS011;3205;42.666;23.264;2022-11-10T14:46:26;64.30;;;28.98;;
6344;SDS011;3205;42.666;23.264;2022-11-10T14:48:56;67.00;;;30.00;;
6344;SDS011;3205;42.666;23.264;2022-11-10T14:51:24;60.00;;;27.17;;
6344;SDS011;3205;42.666;23.264;2022-11-10T14:53:54;63.85;;;28.55;;
6344;SDS011;3205;42.666;23.264;2022-11-10T14:56:22;59.77;;;28.27;;
6344;SDS011;3205;42.666;23.264;2022-11-10T14:58:53;61.85;;;28.30;;
6344;SDS011;3205;42.666;23.264;2022-11-10T15:01:23;53.97;;;29.10;;
6344;SDS011;3205;42.666;23.264;2022-11-10T15:03:54;57.42;;;28.48;;
6344;SDS011;3205;42.666;23.264;2022-11-10T15:06:22;47.67;;;25.57;;
6344;SDS011;3205;42.666;23.264;2022-11-10T15:08:50;55.50;;;28.23;;
6344;SDS011;3205;42.666;23.264;2022-11-10T15:11:33;51.63;;;27.17;;